Time;durP1;ratioP1;P1;durP2;ratioP2;P2;SDS_P1;SDS_P2;PMS_P1;PMS_P2;Temp;Humidity;BMP_temperature;BMP_pressure;BME280_temperature;BME280_humidity;BME280_pressure;Samples;Min_cycle;Max_cycle;Signal;HPM_P1;HPM_P2
2021/04/29 00:01:48;;;;;;;5.70;2.85;;;9.40;99.90;;;;;;4990924;28;20027;-79
2021/04/29 00:04:15;;;;;;;6.68;2.83;;;9.40;99.90;;;;;;4990954;28;20399;-79
2021/04/29 00:06:41;;;;;;;4.90;2.80;;;9.40;99.90;;;;;;4990466;28;20046;-79
2021/04/29 00:09:08;;;;;;;7.45;3.63;;;9.40;99.90;;;;;;5008383;28;20118;-79
2021/04/29 00:11:34;;;;;;;9.10;4.47;;;9.40;99.90;;;;;;5008102;28;20053;-79
2021/04/29 00:14:01;;;;;;;6.72;3.75;;;9.30;99.90;;;;;;4990706;28;20101;-79
2021/04/29 00:16:27;;;;;;;5.57;3.33;;;9.30;99.90;;;;;;4990470;28;20018;-79
2021/04/29 00:18:53;;;;;;;5.07;3.40;;;9.30;99.90;;;;;;4990597;28;20079;-79
2021/04/29 00:21:19;;;;;;;6.80;3.88;;;9.30;99.90;;;;;;5008173;28;20030;-79
2021/04/29 00:23:45;;;;;;;7.88;4.00;;;9.30;99.90;;;;;;5008102;28;20034;-79
2021/04/29 00:26:10;;;;;;;7.72;4.07;;;9.30;99.90;;;;;;5006629;28;20096;-79
2021/04/29 00:28:36;;;;;;;6.32;3.28;;;9.30;99.90;;;;;;4990377;28;20126;-79
2021/04/29 00:31:01;;;;;;;7.93;3.38;;;9.30;99.90;;;;;;5007739;28;20053;-79
2021/04/29 00:33:27;;;;;;;8.07;3.33;;;9.30;99.90;;;;;;4992111;28;20031;-80
2021/04/29 00:35:53;;;;;;;6.82;3.90;;;9.20;99.90;;;;;;5009690;28;20246;-79
2021/04/29 00:38:19;;;;;;;6.80;4.15;;;9.30;99.90;;;;;;5009822;28;20053;-79
2021/04/29 00:40:44;;;;;;;6.95;4.32;;;9.20;99.90;;;;;;5009682;28;20109;-79
2021/04/29 00:43:11;;;;;;;7.43;4.20;;;9.30;99.90;;;;;;5004895;28;20026;-79
2021/04/29 00:45:38;;;;;;;5.88;3.95;;;9.30;99.90;;;;;;4989955;28;20391;-79
2021/04/29 00:48:04;;;;;;;7.30;4.53;;;9.30;99.90;;;;;;4990048;28;20045;-79
2021/04/29 00:50:30;;;;;;;6.53;4.05;;;9.30;99.90;;;;;;4989300;28;20061;-79
2021/04/29 00:52:56;;;;;;;6.60;4.15;;;9.40;99.90;;;;;;5007278;28;20027;-79
2021/04/29 00:55:22;;;;;;;7.95;4.60;;;9.30;99.90;;;;;;4989894;28;20034;-79
2021/04/29 00:57:48;;;;;;;8.70;5.30;;;9.30;99.90;;;;;;5006036;28;20031;-79
2021/04/29 01:00:15;;;;;;;7.00;4.07;;;9.30;99.90;;;;;;4989898;28;20042;-79
2021/04/29 01:02:47;;;;;;;7.13;3.90;;;9.10;99.90;;;;;;4989279;28;20042;-79
2021/04/29 01:05:18;;;;;;;6.53;3.95;;;9.20;99.90;;;;;;4989774;28;20049;-79
2021/04/29 01:07:49;;;;;;;7.72;4.85;;;9.20;99.90;;;;;;5006016;28;20034;-79
2021/04/29 01:10:26;;;;;;;7.95;4.03;;;9.20;99.90;;;;;;4990021;28;20038;-79
2021/04/29 01:12:59;;;;;;;8.90;5.53;;;9.10;99.90;;;;;;5005731;28;20094;-79
2021/04/29 01:15:26;;;;;;;8.25;4.28;;;9.10;99.90;;;;;;4989878;28;20085;-79
2021/04/29 01:17:53;;;;;;;7.80;4.85;;;9.10;99.90;;;;;;5005511;28;20031;-80
2021/04/29 01:20:22;;;;;;;7.30;4.88;;;9.00;99.90;;;;;;4989547;28;20084;-80
2021/04/29 01:23:10;;;;;;;7.63;4.93;;;9.00;99.90;;;;;;5006879;28;20113;-80
2021/04/29 01:25:40;;;;;;;6.40;3.53;;;8.90;99.90;;;;;;4989522;28;20038;-79
2021/04/29 01:28:07;;;;;;;8.63;4.38;;;8.90;99.90;;;;;;4989624;28;20030;-79
2021/04/29 01:30:34;;;;;;;8.05;4.47;;;8.80;99.90;;;;;;4989488;28;20042;-79
2021/04/29 01:33:00;;;;;;;7.85;5.05;;;8.80;99.90;;;;;;4989260;28;20402;-79
2021/04/29 01:35:26;;;;;;;7.07;4.53;;;8.80;99.90;;;;;;4985955;28;20031;-79
2021/04/29 01:37:53;;;;;;;8.68;5.45;;;8.70;99.90;;;;;;4970031;28;20038;-79
2021/04/29 01:40:21;;;;;;;6.63;4.65;;;8.70;99.90;;;;;;4969811;28;20106;-79
2021/04/29 01:42:47;;;;;;;7.90;4.63;;;8.60;99.90;;;;;;4955266;28;20038;-79
2021/04/29 01:45:14;;;;;;;6.57;3.92;;;8.60;99.90;;;;;;4989045;28;20061;-79
2021/04/29 01:47:40;;;;;;;6.60;4.45;;;8.50;99.90;;;;;;5005209;28;20038;-79
2021/04/29 01:50:09;;;;;;;7.13;4.68;;;8.50;99.90;;;;;;4989178;28;20027;-79
2021/04/29 01:52:36;;;;;;;9.10;5.50;;;8.40;99.90;;;;;;5005092;28;20438;-80
2021/04/29 01:55:03;;;;;;;8.25;5.15;;;8.30;99.90;;;;;;5005428;28;20034;-79
2021/04/29 01:57:29;;;;;;;9.32;5.57;;;8.30;99.90;;;;;;4988953;28;20037;-79
2021/04/29 01:59:55;;;;;;;8.75;5.65;;;8.30;99.90;;;;;;5005188;28;20023;-79
2021/04/29 02:02:23;;;;;;;8.70;5.05;;;8.20;99.90;;;;;;5006201;28;20030;-79
2021/04/29 02:04:49;;;;;;;8.75;5.60;;;8.10;99.90;;;;;;4988835;28;20069;-79
2021/04/29 02:07:16;;;;;;;9.52;6.30;;;8.00;99.90;;;;;;5004792;28;20030;-79
2021/04/29 02:09:42;;;;;;;8.73;5.65;;;8.00;99.90;;;;;;4988780;28;20037;-79
2021/04/29 02:12:10;;;;;;;10.02;5.80;;;7.90;99.90;;;;;;5004775;28;20038;-79
2021/04/29 02:14:53;;;;;;;11.68;5.38;;;8.00;99.90;;;;;;4988695;28;20034;-79
2021/04/29 02:17:28;;;;;;;10.18;5.75;;;7.90;99.90;;;;;;4988512;28;20038;-80
2021/04/29 02:19:56;;;;;;;10.55;5.55;;;7.90;99.90;;;;;;4988449;28;20050;-79
2021/04/29 02:22:25;;;;;;;11.52;5.63;;;7.80;99.90;;;;;;4988538;28;20027;-79
2021/04/29 02:24:54;;;;;;;10.95;7.43;;;7.80;99.90;;;;;;5004645;28;20030;-79
2021/04/29 02:27:21;;;;;;;13.25;6.20;;;7.80;99.90;;;;;;5004855;28;20042;-79
2021/04/29 02:29:47;;;;;;;8.27;5.57;;;7.80;99.90;;;;;;5004667;28;20035;-79
2021/04/29 02:32:17;;;;;;;6.97;4.80;;;7.80;99.90;;;;;;4988455;28;20035;-79
2021/04/29 02:34:44;;;;;;;;;;;7.80;99.90;;;;;;4985400;28;20031;-79
2021/04/29 02:37:11;;;;;;;7.63;4.72;;;7.80;99.90;;;;;;4986384;28;19906;-79
2021/04/29 02:39:37;;;;;;;8.98;6.00;;;7.80;99.90;;;;;;4985423;28;20376;-79
2021/04/29 02:42:03;;;;;;;12.00;6.43;;;7.90;99.90;;;;;;4986656;28;20081;-79
2021/04/29 02:44:29;;;;;;;10.55;6.53;;;7.90;99.90;;;;;;5001139;28;20034;-79
2021/04/29 02:46:56;;;;;;;11.45;6.07;;;7.90;99.90;;;;;;4989459;28;20042;-79
2021/04/29 02:49:23;;;;;;;9.45;6.28;;;7.90;99.90;;;;;;4989119;28;20057;-79
2021/04/29 02:51:49;;;;;;;8.50;6.20;;;7.90;99.90;;;;;;4987971;28;20038;-79
2021/04/29 02:54:15;;;;;;;11.32;6.95;;;7.90;99.90;;;;;;4988402;28;20027;-79
2021/04/29 02:56:41;;;;;;;12.02;6.38;;;8.00;99.90;;;;;;5004401;28;20034;-79
2021/04/29 02:59:08;;;;;;;9.52;5.47;;;7.90;99.90;;;;;;5004678;28;20046;-79
2021/04/29 03:01:35;;;;;;;9.90;6.28;;;7.90;99.90;;;;;;4988074;28;20101;-79
2021/04/29 03:04:02;;;;;;;8.75;5.50;;;7.90;99.90;;;;;;5004433;28;20022;-79
2021/04/29 03:06:28;;;;;;;10.70;7.20;;;7.90;99.90;;;;;;5005489;28;20049;-79
2021/04/29 03:08:54;;;;;;;9.65;6.32;;;7.90;99.90;;;;;;5005635;28;20042;-79
2021/04/29 03:11:20;;;;;;;10.07;6.60;;;7.90;99.90;;;;;;4988064;28;20038;-79
2021/04/29 03:14:06;;;;;;;10.05;6.90;;;7.90;99.90;;;;;;4988767;28;20041;-79
2021/04/29 03:16:32;;;;;;;10.95;6.82;;;7.90;99.90;;;;;;4967754;29;20579;-79
2021/04/29 03:18:58;;;;;;;8.95;5.63;;;7.90;99.90;;;;;;4967755;28;20062;-79
2021/04/29 03:21:23;;;;;;;8.80;5.70;;;8.00;99.90;;;;;;4967792;28;20058;-79
2021/04/29 03:23:49;;;;;;;7.60;5.45;;;8.00;99.90;;;;;;4968111;29;20468;-79
2021/04/29 03:26:14;;;;;;;12.50;7.53;;;7.90;99.90;;;;;;4967727;29;20106;-79
2021/04/29 03:28:40;;;;;;;9.13;5.95;;;7.90;99.90;;;;;;4951924;29;20043;-79
2021/04/29 03:31:06;;;;;;;9.07;5.72;;;7.90;99.90;;;;;;4967737;29;20035;-79
2021/04/29 03:33:31;;;;;;;8.07;6.00;;;7.80;99.90;;;;;;4970310;28;20082;-79
2021/04/29 03:35:57;;;;;;;11.02;7.00;;;7.80;99.90;;;;;;4954530;28;20073;-79
2021/04/29 03:38:22;;;;;;;13.98;8.40;;;7.70;99.90;;;;;;4971002;28;20031;-79
2021/04/29 03:40:48;;;;;;;10.90;6.90;;;7.60;99.90;;;;;;4970646;28;20106;-79
2021/04/29 03:43:13;;;;;;;11.27;6.20;;;7.50;99.90;;;;;;4986964;28;20034;-79
2021/04/29 03:45:39;;;;;;;8.65;5.95;;;7.50;99.90;;;;;;4986772;28;20134;-79
2021/04/29 03:48:05;;;;;;;9.98;5.88;;;7.50;99.90;;;;;;4970710;28;20054;-79
2021/04/29 03:50:31;;;;;;;11.30;6.75;;;7.60;99.90;;;;;;4970451;28;20026;-79
2021/04/29 03:52:57;;;;;;;9.05;6.15;;;7.50;99.90;;;;;;4991624;28;20049;-79
2021/04/29 03:55:23;;;;;;;13.80;8.13;;;7.50;99.90;;;;;;5007343;28;20089;-79
2021/04/29 03:57:48;;;;;;;16.98;10.00;;;7.60;99.90;;;;;;5008462;28;20494;-79
2021/04/29 04:00:14;;;;;;;15.30;9.40;;;7.60;99.90;;;;;;5008558;28;20042;-79
2021/04/29 04:02:40;;;;;;;13.98;9.55;;;7.60;99.90;;;;;;5007050;28;20090;-79
2021/04/29 04:05:07;;;;;;;12.52;8.60;;;7.70;99.90;;;;;;4990663;28;20086;-79
2021/04/29 04:07:33;;;;;;;14.02;9.20;;;7.70;99.90;;;;;;5005615;28;20035;-79
2021/04/29 04:09:59;;;;;;;16.52;9.15;;;7.80;99.90;;;;;;4974862;28;20398;-79
2021/04/29 04:12:25;;;;;;;11.98;8.55;;;7.80;99.90;;;;;;4974660;28;20038;-79
2021/04/29 04:14:50;;;;;;;14.35;8.20;;;7.80;99.90;;;;;;4990938;28;20034;-79
2021/04/29 04:17:16;;;;;;;13.32;9.63;;;7.80;99.90;;;;;;5008810;28;20098;-81
2021/04/29 04:19:42;;;;;;;13.77;9.07;;;7.70;99.90;;;;;;4990657;28;20042;-80
2021/04/29 04:22:07;;;;;;;13.57;9.80;;;7.70;99.90;;;;;;4987723;28;20098;-81
2021/04/29 04:24:33;;;;;;;15.65;10.68;;;7.70;99.90;;;;;;4990679;28;20043;-81
2021/04/29 04:26:58;;;;;;;12.98;8.98;;;7.80;99.90;;;;;;4989379;28;20133;-81
2021/04/29 04:29:24;;;;;;;8.40;5.80;;;7.80;99.90;;;;;;4974604;28;20030;-80
2021/04/29 04:31:50;;;;;;;12.35;9.40;;;7.90;99.90;;;;;;4990773;28;20070;-80
2021/04/29 04:34:15;;;;;;;17.10;10.90;;;7.90;99.90;;;;;;4983315;28;20026;-81
2021/04/29 04:36:41;;;;;;;18.10;12.90;;;7.90;99.90;;;;;;5025328;28;20395;-81
2021/04/29 04:39:07;;;;;;;16.52;11.38;;;7.90;99.90;;;;;;5010089;28;20040;-81
2021/04/29 04:41:32;;;;;;;16.95;11.38;;;7.80;99.90;;;;;;5009643;28;20036;-81
2021/04/29 04:43:58;;;;;;;19.88;11.90;;;7.80;99.90;;;;;;5015177;28;20050;-80
2021/04/29 04:46:24;;;;;;;16.55;11.27;;;7.80;99.90;;;;;;4989588;28;20066;-80
2021/04/29 04:48:50;;;;;;;17.20;10.68;;;7.70;99.90;;;;;;4989724;28;20053;-80
2021/04/29 04:51:16;;;;;;;16.13;10.75;;;7.70;99.90;;;;;;4989465;28;20482;-80
2021/04/29 04:53:42;;;;;;;15.05;9.38;;;7.70;99.90;;;;;;4989487;28;20046;-80
2021/04/29 04:56:07;;;;;;;16.95;12.00;;;7.80;99.90;;;;;;4989324;28;20105;-80
2021/04/29 04:58:33;;;;;;;17.13;11.65;;;7.70;99.90;;;;;;4989388;28;20097;-80
2021/04/29 05:00:59;;;;;;;16.80;11.07;;;7.60;99.90;;;;;;4989440;28;20106;-80
2021/04/29 05:03:26;;;;;;;20.80;13.57;;;7.60;99.90;;;;;;5007099;28;20026;-80
2021/04/29 05:05:52;;;;;;;17.02;11.52;;;7.70;99.90;;;;;;5006146;28;20105;-80
2021/04/29 05:08:17;;;;;;;15.00;10.77;;;7.70;99.90;;;;;;5004735;28;20038;-80
2021/04/29 05:10:43;;;;;;;18.65;12.63;;;7.80;99.90;;;;;;5004888;28;20065;-80
2021/04/29 05:13:09;;;;;;;17.60;12.90;;;7.80;99.90;;;;;;5004121;28;20125;-80
2021/04/29 05:15:36;;;;;;;15.07;12.00;;;7.90;99.90;;;;;;4988390;28;20034;-80
2021/04/29 05:18:03;;;;;;;21.20;12.57;;;7.90;99.90;;;;;;4988670;28;20037;-80
2021/04/29 05:20:29;;;;;;;20.65;14.40;;;7.90;99.90;;;;;;4971520;28;20046;-80
2021/04/29 05:22:55;;;;;;;17.90;12.80;;;8.00;99.90;;;;;;4988508;28;20038;-80
2021/04/29 05:25:24;;;;;;;20.42;13.70;;;8.10;99.90;;;;;;4988056;28;20034;-79
2021/04/29 05:27:51;;;;;;;20.52;14.30;;;8.00;99.90;;;;;;4981030;28;20069;-80
2021/04/29 05:30:17;;;;;;;19.83;11.18;;;8.00;99.90;;;;;;4986926;28;20026;-79
2021/04/29 05:32:43;;;;;;;18.60;13.30;;;8.00;99.90;;;;;;5000795;28;20121;-79
2021/04/29 05:35:09;;;;;;;19.08;13.65;;;8.00;99.90;;;;;;5016518;28;20034;-79
2021/04/29 05:37:35;;;;;;;15.52;11.60;;;8.00;99.90;;;;;;4991168;28;20030;-80
2021/04/29 05:40:00;;;;;;;15.85;11.50;;;8.00;99.90;;;;;;4988560;28;20097;-79
2021/04/29 05:42:26;;;;;;;22.30;13.25;;;8.00;99.90;;;;;;5002975;28;20045;-79
2021/04/29 05:44:51;;;;;;;20.23;13.45;;;8.00;99.90;;;;;;4995536;28;20046;-80
2021/04/29 05:47:17;;;;;;;18.15;12.43;;;8.00;99.90;;;;;;4999465;28;20045;-80
2021/04/29 05:49:43;;;;;;;21.98;12.65;;;8.00;99.90;;;;;;4992145;28;20080;-80
2021/04/29 05:52:12;;;;;;;21.50;14.32;;;8.00;99.90;;;;;;5009493;28;20494;-79
2021/04/29 05:54:38;;;;;;;19.85;12.77;;;8.00;99.90;;;;;;5001169;28;20053;-79
2021/04/29 05:57:04;;;;;;;19.73;13.48;;;8.00;99.90;;;;;;4987168;28;20509;-80
2021/04/29 05:59:30;;;;;;;21.45;15.32;;;8.10;99.90;;;;;;4998772;28;20037;-80
2021/04/29 06:01:56;;;;;;;21.48;16.42;;;8.10;99.90;;;;;;5006796;28;20053;-80
2021/04/29 06:04:21;;;;;;;21.02;14.80;;;8.10;99.90;;;;;;4988022;28;20030;-80
2021/04/29 06:06:50;;;;;;;24.17;14.50;;;8.10;99.90;;;;;;4987756;28;20419;-79
2021/04/29 06:09:16;;;;;;;21.27;14.68;;;8.00;99.90;;;;;;4987867;28;20026;-79
2021/04/29 06:11:42;;;;;;;20.17;13.15;;;8.10;99.90;;;;;;4988229;28;20035;-80
2021/04/29 06:14:12;;;;;;;24.80;15.98;;;8.20;99.90;;;;;;5004342;28;20046;-79
2021/04/29 06:16:39;;;;;;;23.80;15.20;;;8.10;99.90;;;;;;4972035;28;20033;-80
2021/04/29 06:19:05;;;;;;;27.98;18.60;;;8.10;99.90;;;;;;4971763;28;20044;-80
2021/04/29 06:21:31;;;;;;;20.73;15.32;;;8.00;99.90;;;;;;4988184;28;20061;-80
2021/04/29 06:23:57;;;;;;;20.80;14.90;;;8.00;99.90;;;;;;4987822;28;20068;-80
2021/04/29 06:26:23;;;;;;;26.35;15.05;;;8.00;99.90;;;;;;4987966;28;20046;-80
2021/04/29 06:28:48;;;;;;;22.67;15.90;;;8.10;99.90;;;;;;4987809;28;20026;-80
2021/04/29 06:31:14;;;;;;;20.08;13.63;;;8.10;99.90;;;;;;5004118;28;20422;-79
2021/04/29 06:33:40;;;;;;;22.83;16.17;;;8.10;99.90;;;;;;4987796;28;20034;-80
2021/04/29 06:36:06;;;;;;;18.90;13.73;;;8.30;99.90;;;;;;4987766;28;20030;-80
2021/04/29 06:38:34;;;;;;;27.55;17.65;;;8.30;99.90;;;;;;5005238;28;20034;-80
2021/04/29 06:41:00;;;;;;;22.70;15.52;;;8.10;99.90;;;;;;4987786;28;20066;-80
2021/04/29 06:43:26;;;;;;;24.25;16.23;;;8.10;99.90;;;;;;4987672;28;20041;-80
2021/04/29 06:45:51;;;;;;;24.80;14.75;;;8.20;99.90;;;;;;4987898;28;20093;-80
2021/04/29 06:48:17;;;;;;;17.42;13.10;;;8.40;99.90;;;;;;5004020;28;20035;-80
2021/04/29 06:50:42;;;;;;;21.02;13.77;;;8.50;99.90;;;;;;5007660;28;20034;-79
2021/04/29 06:53:08;;;;;;;17.15;13.25;;;8.50;99.90;;;;;;4991513;28;20100;-80
2021/04/29 06:55:33;;;;;;;20.73;13.57;;;8.60;99.90;;;;;;4991467;28;20039;-80
2021/04/29 06:57:59;;;;;;;21.35;13.80;;;8.70;99.90;;;;;;4991727;28;20037;-80
2021/04/29 07:00:25;;;;;;;21.35;15.23;;;8.70;99.90;;;;;;4991635;28;20034;-80
2021/04/29 07:02:51;;;;;;;17.67;11.75;;;8.50;99.90;;;;;;4991610;28;20466;-80
2021/04/29 07:05:17;;;;;;;16.92;12.25;;;8.60;99.90;;;;;;4990985;28;20102;-80
2021/04/29 07:07:43;;;;;;;17.20;13.00;;;8.60;99.90;;;;;;5007822;28;20026;-80
2021/04/29 07:10:09;;;;;;;19.38;13.75;;;8.60;99.90;;;;;;4991138;28;20042;-80
2021/04/29 07:12:35;;;;;;;16.58;11.23;;;8.60;99.90;;;;;;4991260;28;20030;-80
2021/04/29 07:15:00;;;;;;;16.10;10.57;;;8.80;99.90;;;;;;4991333;28;20129;-80
2021/04/29 07:17:26;;;;;;;20.98;14.02;;;8.80;99.90;;;;;;4991159;28;20058;-80
2021/04/29 07:19:52;;;;;;;16.13;12.15;;;8.70;99.90;;;;;;4990943;28;20103;-80
2021/04/29 07:22:17;;;;;;;14.38;10.55;;;8.80;99.90;;;;;;4991175;28;20027;-80
2021/04/29 07:24:43;;;;;;;17.70;12.38;;;9.10;99.90;;;;;;5007123;28;20041;-80
2021/04/29 07:27:10;;;;;;;17.92;11.73;;;9.00;99.90;;;;;;4990936;28;20069;-80
2021/04/29 07:29:36;;;;;;;14.25;10.57;;;9.00;99.90;;;;;;5007236;28;20030;-80
2021/04/29 07:32:02;;;;;;;14.27;9.73;;;9.00;99.90;;;;;;5007146;28;20057;-80
2021/04/29 07:34:28;;;;;;;14.65;10.20;;;9.30;99.90;;;;;;4997507;28;20034;-80
2021/04/29 07:36:54;;;;;;;11.60;8.85;;;9.40;99.90;;;;;;5007003;28;20058;-80
2021/04/29 07:39:19;;;;;;;12.82;9.52;;;9.50;99.90;;;;;;5006898;28;20030;-80
2021/04/29 07:41:45;;;;;;;15.90;9.93;;;9.60;99.90;;;;;;5006968;28;20478;-80
2021/04/29 07:44:11;;;;;;;13.65;9.57;;;9.50;99.90;;;;;;4990901;28;20032;-80
2021/04/29 07:46:37;;;;;;;15.25;10.38;;;9.50;99.90;;;;;;5007480;23;20069;-80
2021/04/29 07:49:02;;;;;;;16.15;9.80;;;9.50;99.90;;;;;;5029008;28;20029;-80
2021/04/29 07:51:28;;;;;;;14.73;10.25;;;9.50;99.90;;;;;;5028526;28;20037;-80
2021/04/29 07:53:54;;;;;;;14.07;11.02;;;9.50;99.90;;;;;;5012364;28;20025;-80
2021/04/29 07:56:19;;;;;;;13.45;10.10;;;9.40;99.90;;;;;;5012044;28;20021;-80
2021/04/29 07:58:46;;;;;;;14.63;10.60;;;9.50;99.90;;;;;;5028753;28;20037;-80
2021/04/29 08:01:11;;;;;;;13.77;10.60;;;9.70;99.90;;;;;;5011844;28;20040;-79
2021/04/29 08:03:38;;;;;;;13.63;10.80;;;9.70;99.90;;;;;;5012154;28;20033;-80
2021/04/29 08:06:04;;;;;;;13.50;9.68;;;9.80;99.90;;;;;;5011717;28;20065;-80
2021/04/29 08:08:29;;;;;;;14.35;10.77;;;9.90;99.90;;;;;;5028302;28;20026;-80
2021/04/29 08:10:55;;;;;;;15.55;11.23;;;9.80;99.90;;;;;;5028138;28;20044;-80
2021/04/29 08:13:20;;;;;;;15.70;10.68;;;9.90;99.90;;;;;;5012003;28;20034;-80
2021/04/29 08:15:46;;;;;;;14.18;11.25;;;10.00;99.90;;;;;;5028064;28;20060;-81
2021/04/29 08:18:12;;;;;;;15.13;10.30;;;10.20;99.90;;;;;;5012015;28;20036;-80
2021/04/29 08:20:39;;;;;;;17.85;11.77;;;10.50;99.90;;;;;;5028141;28;20037;-80
2021/04/29 08:23:05;;;;;;;14.73;11.10;;;10.30;99.90;;;;;;5011709;28;20029;-80
2021/04/29 08:25:31;;;;;;;18.42;11.13;;;10.30;99.90;;;;;;5011391;28;20057;-80
2021/04/29 08:27:56;;;;;;;16.58;12.60;;;10.30;99.90;;;;;;5028151;28;20034;-81
2021/04/29 08:30:27;;;;;;;15.55;11.88;;;10.40;99.90;;;;;;5011526;28;20029;-80
2021/04/29 08:32:53;;;;;;;14.25;9.85;;;10.50;99.90;;;;;;5011625;28;20052;-81
2021/04/29 08:35:20;;;;;;;17.13;12.68;;;10.60;99.90;;;;;;5041467;28;20148;-80
2021/04/29 08:37:46;;;;;;;17.25;11.68;;;10.10;99.90;;;;;;5044251;28;20068;-80
2021/04/29 08:40:11;;;;;;;16.10;12.20;;;10.10;99.90;;;;;;5044235;28;20033;-80
2021/04/29 08:42:37;;;;;;;15.07;11.18;;;10.30;99.90;;;;;;5044313;28;20029;-81
2021/04/29 08:45:05;;;;;;;13.40;11.27;;;10.20;99.90;;;;;;5027941;28;20038;-80
2021/04/29 08:47:30;;;;;;;14.95;10.50;;;10.20;99.90;;;;;;5006824;28;514782;-81
2021/04/29 08:49:57;;;;;;;13.38;9.77;;;10.10;99.90;;;;;;5041789;28;20034;-80
2021/04/29 08:52:22;;;;;;;15.10;11.52;;;10.10;99.90;;;;;;5025276;28;20028;-81
2021/04/29 08:54:49;;;;;;;16.27;12.00;;;10.00;99.90;;;;;;5041927;28;20129;-80
2021/04/29 08:57:15;;;;;;;15.40;11.52;;;10.00;99.90;;;;;;5041492;28;20030;-80
2021/04/29 08:59:41;;;;;;;15.10;11.77;;;9.90;99.90;;;;;;5026524;28;20033;-81
2021/04/29 09:02:07;;;;;;;17.70;12.95;;;10.00;99.90;;;;;;5041487;28;20053;-80
2021/04/29 09:04:42;;;;;;;18.50;13.40;;;10.00;99.90;;;;;;5041846;28;20038;-80
2021/04/29 09:07:25;;;;;;;16.42;12.65;;;9.90;99.90;;;;;;5024804;28;20133;-81
2021/04/29 09:09:51;;;;;;;15.85;12.15;;;9.80;99.90;;;;;;5041636;28;20045;-80
2021/04/29 09:12:16;;;;;;;17.10;12.68;;;9.80;99.90;;;;;;5040762;28;20112;-80
2021/04/29 09:14:43;;;;;;;14.27;11.38;;;9.80;99.90;;;;;;5041640;28;20030;-80
2021/04/29 09:17:10;;;;;;;14.48;12.02;;;9.80;99.90;;;;;;5026242;28;20076;-80
2021/04/29 09:19:53;;;;;;;19.33;13.40;;;9.70;99.90;;;;;;5041458;28;20026;-81
2021/04/29 09:22:21;;;;;;;20.98;13.07;;;9.60;99.90;;;;;;5041601;28;20037;-80
2021/04/29 09:24:47;;;;;;;16.90;12.30;;;9.70;99.90;;;;;;5041309;28;20547;-80
2021/04/29 09:27:21;;;;;;;18.48;13.88;;;9.70;99.90;;;;;;5040838;28;20084;-80
2021/04/29 09:29:54;;;;;;;20.60;13.02;;;9.60;99.90;;;;;;5041238;28;20394;-80
2021/04/29 09:32:27;;;;;;;17.50;13.95;;;9.70;99.90;;;;;;5026124;28;20038;-80
2021/04/29 09:34:53;;;;;;;15.50;12.18;;;9.70;99.90;;;;;;5008154;28;20037;-80
2021/04/29 09:37:29;;;;;;;15.13;12.65;;;9.70;99.90;;;;;;5008013;28;20034;-81
2021/04/29 09:39:55;;;;;;;18.33;13.93;;;9.70;99.90;;;;;;5025881;28;20022;-80
2021/04/29 09:42:37;;;;;;;18.60;14.60;;;9.60;99.90;;;;;;5007996;28;20052;-80
2021/04/29 09:45:18;;;;;;;16.85;13.63;;;9.60;99.90;;;;;;5021385;28;20031;-80
2021/04/29 09:48:07;;;;;;;21.60;14.40;;;9.60;99.90;;;;;;5004559;28;20085;-81
2021/04/29 09:50:38;;;;;;;17.35;12.77;;;9.50;99.90;;;;;;5004743;28;20038;-81
2021/04/29 09:53:05;;;;;;;16.35;12.52;;;9.60;99.90;;;;;;5020888;28;20065;-81
2021/04/29 09:55:35;;;;;;;17.33;13.77;;;9.70;99.90;;;;;;5021181;28;20492;-80
2021/04/29 09:58:04;;;;;;;19.83;14.50;;;9.60;99.90;;;;;;5004502;28;20032;-80
2021/04/29 10:00:30;;;;;;;18.63;13.95;;;9.60;99.90;;;;;;4988379;28;20101;-80
2021/04/29 10:02:56;;;;;;;18.67;14.90;;;9.70;99.90;;;;;;5004488;28;20030;-80
2021/04/29 10:05:22;;;;;;;19.42;13.00;;;9.70;99.90;;;;;;5005671;28;20041;-80
2021/04/29 10:07:50;;;;;;;20.23;15.20;;;9.70;99.90;;;;;;5004169;28;20082;-80
2021/04/29 10:10:17;;;;;;;19.13;15.25;;;9.70;99.90;;;;;;5020529;28;20030;-80
2021/04/29 10:12:44;;;;;;;16.42;12.77;;;9.70;99.90;;;;;;5020549;28;20049;-80
2021/04/29 10:15:10;;;;;;;20.60;14.23;;;9.70;99.90;;;;;;5004414;28;20053;-80
2021/04/29 10:17:36;;;;;;;19.55;16.27;;;9.60;99.90;;;;;;5004128;28;20033;-81
2021/04/29 10:20:02;;;;;;;20.08;15.55;;;9.70;99.90;;;;;;5004150;28;20347;-81
2021/04/29 10:22:28;;;;;;;23.95;16.67;;;9.80;99.90;;;;;;5004158;28;20121;-81
2021/04/29 10:24:54;;;;;;;26.77;20.67;;;9.70;99.90;;;;;;5003302;28;20026;-81
2021/04/29 10:27:26;;;;;;;25.73;20.33;;;9.60;99.90;;;;;;5020546;28;20069;-81
2021/04/29 10:30:07;;;;;;;25.08;18.10;;;9.60;99.90;;;;;;5004065;28;20038;-81
2021/04/29 10:32:34;;;;;;;23.50;18.48;;;9.60;99.90;;;;;;5004036;28;20058;-81
2021/04/29 10:35:23;;;;;;;26.98;18.98;;;9.50;99.90;;;;;;5018510;28;20044;-81
2021/04/29 10:38:03;;;;;;;26.48;18.20;;;9.40;99.90;;;;;;5023671;28;20085;-80
2021/04/29 10:40:37;;;;;;;24.73;17.95;;;9.50;99.90;;;;;;5025002;28;20065;-80
2021/04/29 10:43:04;;;;;;;29.02;20.13;;;9.40;99.90;;;;;;5007029;28;20094;-80
2021/04/29 10:45:30;;;;;;;21.60;16.52;;;9.40;99.90;;;;;;5040227;28;20037;-81
2021/04/29 10:48:10;;;;;;;25.10;18.33;;;9.40;99.90;;;;;;5039850;28;20054;-81
2021/04/29 10:50:43;;;;;;;24.77;19.20;;;9.40;99.90;;;;;;5023748;28;20034;-81
2021/04/29 10:53:09;;;;;;;24.40;17.33;;;9.30;99.90;;;;;;5041434;28;20038;-81
2021/04/29 10:55:38;;;;;;;26.77;18.70;;;9.40;99.90;;;;;;5041238;28;20026;-81
2021/04/29 10:58:06;;;;;;;22.40;17.35;;;9.40;99.90;;;;;;5036027;28;20033;-80
2021/04/29 11:01:01;;;;;;;27.17;19.45;;;9.40;99.90;;;;;;5039679;28;20084;-81
2021/04/29 11:03:34;;;;;;;22.58;16.70;;;9.30;99.90;;;;;;5039892;28;20068;-80
2021/04/29 11:06:30;;;;;;;27.52;19.13;;;9.40;99.90;;;;;;5023260;28;20038;-80
2021/04/29 11:08:58;;;;;;;22.23;17.17;;;9.30;99.90;;;;;;5011306;28;20058;-80
2021/04/29 11:11:36;;;;;;;27.02;18.08;;;9.30;99.90;;;;;;5023645;28;20069;-81
2021/04/29 11:14:07;;;;;;;24.15;18.02;;;9.30;99.90;;;;;;5023417;28;20033;-81
2021/04/29 11:16:53;;;;;;;22.90;17.40;;;9.30;99.90;;;;;;5006859;28;20026;-81
2021/04/29 11:19:37;;;;;;;24.77;17.55;;;9.20;99.90;;;;;;5024747;28;20534;-81
2021/04/29 11:22:11;;;;;;;20.60;17.15;;;9.20;99.90;;;;;;5023612;28;20042;-81
2021/04/29 11:24:45;;;;;;;22.63;17.42;;;9.40;99.90;;;;;;5023345;28;20033;-80
2021/04/29 11:27:32;;;;;;;22.00;16.73;;;9.30;99.90;;;;;;5039304;28;20110;-81
2021/04/29 11:33:13;;;;;;;25.27;16.65;;;9.20;99.90;;;;;;5022996;28;20191;-81
2021/04/29 11:35:42;;;;;;;24.20;15.88;;;9.10;99.90;;;;;;5027767;28;20540;-80
2021/04/29 11:38:10;;;;;;;19.70;14.73;;;9.00;99.90;;;;;;5047811;28;20033;-81
2021/04/29 11:40:36;;;;;;;23.17;15.85;;;9.00;99.90;;;;;;5029908;28;20037;-80
2021/04/29 11:43:03;;;;;;;20.83;14.95;;;8.90;99.90;;;;;;5009651;28;20036;-80
2021/04/29 11:45:39;;;;;;;17.80;14.60;;;8.90;99.90;;;;;;4993969;28;20030;-81
2021/04/29 11:48:09;;;;;;;21.17;14.23;;;8.90;99.90;;;;;;4994023;28;20105;-80
2021/04/29 11:50:37;;;;;;;19.67;13.50;;;9.00;99.90;;;;;;5010035;28;20030;-81
2021/04/29 11:53:18;;;;;;;17.42;12.35;;;8.90;99.90;;;;;;5010260;28;20109;-82
2021/04/29 11:55:54;;;;;;;17.52;12.13;;;8.90;99.90;;;;;;4993411;28;20049;-81
2021/04/29 11:58:20;;;;;;;12.95;10.30;;;8.80;99.90;;;;;;5009930;28;20036;-81
2021/04/29 12:00:52;;;;;;;14.98;11.57;;;9.00;99.90;;;;;;4993512;28;20038;-81
2021/04/29 12:03:19;;;;;;;13.07;11.45;;;8.90;99.90;;;;;;5010077;28;20096;-81
2021/04/29 12:06:05;;;;;;;14.40;11.30;;;8.80;99.90;;;;;;5009517;28;20042;-81
2021/04/29 12:08:33;;;;;;;12.68;10.65;;;8.70;99.90;;;;;;4972703;28;20042;-81
2021/04/29 12:11:03;;;;;;;13.63;11.38;;;8.70;99.90;;;;;;5004783;28;20104;-81
2021/04/29 12:13:38;;;;;;;13.30;11.07;;;8.60;99.90;;;;;;5005212;28;20046;-81
2021/04/29 12:16:09;;;;;;;13.32;10.48;;;8.40;99.90;;;;;;5005060;28;20030;-82
2021/04/29 12:18:39;;;;;;;;;;;8.30;99.90;;;;;;5005588;28;20098;-81
2021/04/29 12:21:05;;;;;;;12.95;9.25;;;8.20;99.90;;;;;;5004974;28;19924;-81
2021/04/29 12:23:31;;;;;;;12.30;9.65;;;8.10;99.90;;;;;;5004896;28;20034;-81
2021/04/29 12:25:56;;;;;;;15.27;11.95;;;8.10;99.90;;;;;;5004422;28;20384;-81
2021/04/29 12:28:30;;;;;;;16.48;11.63;;;8.20;99.90;;;;;;5004682;28;20030;-83
2021/04/29 12:30:57;;;;;;;16.77;13.32;;;8.40;99.90;;;;;;4991231;28;20059;-81
2021/04/29 12:33:22;;;;;;;18.25;14.10;;;8.40;99.90;;;;;;4984331;28;20470;-81
2021/04/29 12:35:48;;;;;;;18.13;12.13;;;8.50;99.90;;;;;;5004400;28;20034;-81
2021/04/29 12:38:18;;;;;;;16.60;11.98;;;8.50;99.90;;;;;;5004910;28;20141;-81
2021/04/29 12:40:44;;;;;;;14.45;11.75;;;8.50;99.90;;;;;;5004115;28;20181;-81
2021/04/29 12:43:21;;;;;;;18.13;11.23;;;8.50;99.90;;;;;;5000230;28;20027;-81
2021/04/29 12:45:49;;;;;;;14.13;10.10;;;8.50;99.90;;;;;;4977320;28;20054;-81
2021/04/29 12:48:25;;;;;;;13.38;10.35;;;8.30;99.90;;;;;;4969315;28;20034;-81
2021/04/29 12:51:05;;;;;;;15.25;10.40;;;8.30;99.90;;;;;;4985840;28;20042;-81